Terminal Aerodrome Forecast
Issued by NWS Cleveland, OH

Home | Current Version | Previous Version | Graphics & Text | Print | Product List | Glossary On
Versions: 1 2 3 4 5 6 7 8 9 10 11 12 13 14 15 16 17 18 19 20 21 22 23 24 25
000
FTUS41 KCLE 262058 AAA
TAFCLE
TAF AMD
KCLE 262058Z 2621/2724 VRB03KT P6SM SCT020 OVC040
     FM270300 24003KT P6SM VCSH BKN035
     FM270800 VRB03KT P6SM BKN025
     FM271700 34005KT P6SM SCT040=

USA.gov is the U.S. government's official web portal to all federal, state and local government web resources and services.